sensor_id;sensor_type;location;lat;lon;timestamp;P1;durP1;ratioP1;P2;durP2;ratioP2
76125;SDS011;65174;48.138;21.002;2023-05-28T00:00:30;1.90;;;0.80;;
76125;SDS011;65174;48.138;21.002;2023-05-28T00:03:32;2.90;;;1.85;;
76125;SDS011;65174;48.138;21.002;2023-05-28T00:06:37;0.93;;;0.63;;
76125;SDS011;65174;48.138;21.002;2023-05-28T00:09:39;0.60;;;0.45;;
76125;SDS011;65174;48.138;21.002;2023-05-28T00:12:43;1.90;;;1.10;;
76125;SDS011;65174;48.138;21.002;2023-05-28T00:15:45;1.13;;;1.00;;
76125;SDS011;65174;48.138;21.002;2023-05-28T00:18:47;3.05;;;1.35;;
76125;SDS011;65174;48.138;21.002;2023-05-28T00:21:49;3.05;;;0.80;;
76125;SDS011;65174;48.138;21.002;2023-05-28T00:24:51;1.58;;;0.95;;
76125;SDS011;65174;48.138;21.002;2023-05-28T00:27:53;1.95;;;1.30;;
76125;SDS011;65174;48.138;21.002;2023-05-28T00:30:55;2.53;;;0.67;;
76125;SDS011;65174;48.138;21.002;2023-05-28T00:33:57;1.52;;;0.90;;
76125;SDS011;65174;48.138;21.002;2023-05-28T00:36:59;2.45;;;1.42;;
76125;SDS011;65174;48.138;21.002;2023-05-28T00:40:01;1.75;;;1.10;;
76125;SDS011;65174;48.138;21.002;2023-05-28T00:43:03;1.10;;;1.00;;
76125;SDS011;65174;48.138;21.002;2023-05-28T00:46:05;0.77;;;0.70;;
76125;SDS011;65174;48.138;21.002;2023-05-28T00:49:09;1.50;;;1.05;;
76125;SDS011;65174;48.138;21.002;2023-05-28T00:52:12;3.25;;;1.42;;
76125;SDS011;65174;48.138;21.002;2023-05-28T00:55:15;2.10;;;1.00;;
76125;SDS011;65174;48.138;21.002;2023-05-28T00:58:17;2.05;;;1.40;;
76125;SDS011;65174;48.138;21.002;2023-05-28T01:01:23;1.80;;;1.33;;
76125;SDS011;65174;48.138;21.002;2023-05-28T01:04:28;2.33;;;0.88;;
76125;SDS011;65174;48.138;21.002;2023-05-28T01:07:32;1.55;;;0.93;;
76125;SDS011;65174;48.138;21.002;2023-05-28T01:10:35;1.35;;;1.10;;
76125;SDS011;65174;48.138;21.002;2023-05-28T01:13:38;4.22;;;1.80;;
76125;SDS011;65174;48.138;21.002;2023-05-28T01:16:43;2.50;;;1.00;;
76125;SDS011;65174;48.138;21.002;2023-05-28T01:19:46;2.45;;;0.98;;
76125;SDS011;65174;48.138;21.002;2023-05-28T01:22:54;4.30;;;0.90;;
76125;SDS011;65174;48.138;21.002;2023-05-28T01:25:57;2.05;;;1.40;;
76125;SDS011;65174;48.138;21.002;2023-05-28T01:29:01;2.45;;;1.08;;
76125;SDS011;65174;48.138;21.002;2023-05-28T01:32:17;1.40;;;0.70;;
76125;SDS011;65174;48.138;21.002;2023-05-28T01:35:19;2.15;;;1.52;;
76125;SDS011;65174;48.138;21.002;2023-05-28T01:38:22;1.13;;;0.77;;
76125;SDS011;65174;48.138;21.002;2023-05-28T01:41:26;8.98;;;1.85;;
76125;SDS011;65174;48.138;21.002;2023-05-28T01:44:29;1.88;;;1.10;;
76125;SDS011;65174;48.138;21.002;2023-05-28T01:47:32;2.83;;;1.23;;
76125;SDS011;65174;48.138;21.002;2023-05-28T01:50:35;4.28;;;1.05;;
76125;SDS011;65174;48.138;21.002;2023-05-28T01:53:38;2.05;;;1.27;;
76125;SDS011;65174;48.138;21.002;2023-05-28T01:56:40;1.65;;;1.20;;
76125;SDS011;65174;48.138;21.002;2023-05-28T01:59:42;3.40;;;1.20;;
76125;SDS011;65174;48.138;21.002;2023-05-28T02:02:45;1.53;;;1.00;;
76125;SDS011;65174;48.138;21.002;2023-05-28T02:05:50;1.38;;;0.80;;
76125;SDS011;65174;48.138;21.002;2023-05-28T02:08:52;1.35;;;1.08;;
76125;SDS011;65174;48.138;21.002;2023-05-28T02:11:54;1.35;;;0.75;;
76125;SDS011;65174;48.138;21.002;2023-05-28T02:14:58;2.13;;;1.20;;
76125;SDS011;65174;48.138;21.002;2023-05-28T02:18:00;1.37;;;0.87;;
76125;SDS011;65174;48.138;21.002;2023-05-28T02:21:02;3.08;;;1.13;;
76125;SDS011;65174;48.138;21.002;2023-05-28T02:24:05;1.92;;;1.33;;
76125;SDS011;65174;48.138;21.002;2023-05-28T02:27:09;2.75;;;1.08;;
76125;SDS011;65174;48.138;21.002;2023-05-28T02:30:11;1.42;;;1.02;;
76125;SDS011;65174;48.138;21.002;2023-05-28T02:33:15;1.10;;;0.83;;
76125;SDS011;65174;48.138;21.002;2023-05-28T02:36:19;0.55;;;0.45;;
76125;SDS011;65174;48.138;21.002;2023-05-28T02:39:22;0.90;;;0.82;;
76125;SDS011;65174;48.138;21.002;2023-05-28T02:42:25;1.40;;;0.85;;
76125;SDS011;65174;48.138;21.002;2023-05-28T02:45:27;4.57;;;1.50;;
76125;SDS011;65174;48.138;21.002;2023-05-28T02:48:30;4.00;;;1.20;;
76125;SDS011;65174;48.138;21.002;2023-05-28T02:51:32;1.13;;;0.95;;
76125;SDS011;65174;48.138;21.002;2023-05-28T02:54:43;7.72;;;0.63;;
76125;SDS011;65174;48.138;21.002;2023-05-28T02:57:45;1.38;;;0.93;;
76125;SDS011;65174;48.138;21.002;2023-05-28T03:00:48;1.15;;;0.75;;
76125;SDS011;65174;48.138;21.002;2023-05-28T03:03:50;2.07;;;0.90;;
76125;SDS011;65174;48.138;21.002;2023-05-28T03:06:52;2.17;;;0.93;;
76125;SDS011;65174;48.138;21.002;2023-05-28T03:09:54;1.90;;;1.13;;
76125;SDS011;65174;48.138;21.002;2023-05-28T03:12:56;1.88;;;0.65;;
76125;SDS011;65174;48.138;21.002;2023-05-28T03:15:59;2.10;;;0.80;;
76125;SDS011;65174;48.138;21.002;2023-05-28T03:19:04;0.87;;;0.70;;
76125;SDS011;65174;48.138;21.002;2023-05-28T03:22:07;3.75;;;1.17;;
76125;SDS011;65174;48.138;21.002;2023-05-28T03:25:14;0.57;;;0.55;;
76125;SDS011;65174;48.138;21.002;2023-05-28T03:28:16;1.25;;;0.80;;
76125;SDS011;65174;48.138;21.002;2023-05-28T03:31:42;1.10;;;1.00;;
76125;SDS011;65174;48.138;21.002;2023-05-28T03:34:52;0.90;;;0.60;;
76125;SDS011;65174;48.138;21.002;2023-05-28T03:38:00;1.33;;;0.80;;
76125;SDS011;65174;48.138;21.002;2023-05-28T03:41:02;0.88;;;0.68;;
76125;SDS011;65174;48.138;21.002;2023-05-28T03:44:04;0.73;;;0.63;;
76125;SDS011;65174;48.138;21.002;2023-05-28T03:47:07;1.17;;;0.70;;
76125;SDS011;65174;48.138;21.002;2023-05-28T03:50:09;1.57;;;1.00;;
76125;SDS011;65174;48.138;21.002;2023-05-28T03:53:11;1.05;;;0.80;;
76125;SDS011;65174;48.138;21.002;2023-05-28T03:56:13;7.68;;;1.20;;
76125;SDS011;65174;48.138;21.002;2023-05-28T03:59:15;1.00;;;0.73;;
76125;SDS011;65174;48.138;21.002;2023-05-28T04:02:17;1.25;;;0.70;;
76125;SDS011;65174;48.138;21.002;2023-05-28T04:05:19;1.20;;;1.10;;
76125;SDS011;65174;48.138;21.002;2023-05-28T04:08:23;0.85;;;0.68;;
76125;SDS011;65174;48.138;21.002;2023-05-28T04:11:25;1.42;;;0.95;;
76125;SDS011;65174;48.138;21.002;2023-05-28T04:14:32;6.78;;;1.30;;
76125;SDS011;65174;48.138;21.002;2023-05-28T04:17:34;2.53;;;1.10;;
76125;SDS011;65174;48.138;21.002;2023-05-28T04:20:36;1.10;;;0.70;;
76125;SDS011;65174;48.138;21.002;2023-05-28T04:23:39;1.08;;;0.95;;
76125;SDS011;65174;48.138;21.002;2023-05-28T04:26:41;2.47;;;1.13;;
76125;SDS011;65174;48.138;21.002;2023-05-28T04:29:43;1.52;;;1.10;;
76125;SDS011;65174;48.138;21.002;2023-05-28T04:32:45;3.47;;;1.23;;
76125;SDS011;65174;48.138;21.002;2023-05-28T04:35:50;4.13;;;1.10;;
76125;SDS011;65174;48.138;21.002;2023-05-28T04:38:53;3.58;;;1.20;;
76125;SDS011;65174;48.138;21.002;2023-05-28T04:41:56;4.03;;;0.90;;
76125;SDS011;65174;48.138;21.002;2023-05-28T04:44:58;1.00;;;0.90;;
76125;SDS011;65174;48.138;21.002;2023-05-28T04:48:03;1.80;;;1.00;;
76125;SDS011;65174;48.138;21.002;2023-05-28T04:51:05;0.53;;;0.50;;
76125;SDS011;65174;48.138;21.002;2023-05-28T04:54:09;2.50;;;1.00;;
76125;SDS011;65174;48.138;21.002;2023-05-28T04:57:11;0.65;;;0.63;;
76125;SDS011;65174;48.138;21.002;2023-05-28T05:00:13;2.20;;;1.38;;
76125;SDS011;65174;48.138;21.002;2023-05-28T05:03:15;1.38;;;0.95;;
76125;SDS011;65174;48.138;21.002;2023-05-28T05:06:17;1.20;;;0.87;;
76125;SDS011;65174;48.138;21.002;2023-05-28T05:09:20;1.02;;;0.70;;
76125;SDS011;65174;48.138;21.002;2023-05-28T05:12:22;1.33;;;0.85;;
76125;SDS011;65174;48.138;21.002;2023-05-28T05:15:24;0.68;;;0.68;;
76125;SDS011;65174;48.138;21.002;2023-05-28T05:18:27;1.00;;;0.57;;
76125;SDS011;65174;48.138;21.002;2023-05-28T05:21:30;5.40;;;1.10;;
76125;SDS011;65174;48.138;21.002;2023-05-28T05:24:33;3.42;;;0.75;;
76125;SDS011;65174;48.138;21.002;2023-05-28T05:27:35;1.25;;;0.90;;
76125;SDS011;65174;48.138;21.002;2023-05-28T05:30:38;1.20;;;0.93;;
76125;SDS011;65174;48.138;21.002;2023-05-28T05:33:40;1.33;;;1.17;;
76125;SDS011;65174;48.138;21.002;2023-05-28T05:37:06;1.63;;;0.93;;
76125;SDS011;65174;48.138;21.002;2023-05-28T05:40:20;1.80;;;1.15;;
76125;SDS011;65174;48.138;21.002;2023-05-28T05:43:37;1.60;;;1.15;;
76125;SDS011;65174;48.138;21.002;2023-05-28T05:46:39;1.65;;;0.52;;
76125;SDS011;65174;48.138;21.002;2023-05-28T05:49:42;2.55;;;1.30;;
76125;SDS011;65174;48.138;21.002;2023-05-28T05:52:45;2.77;;;0.87;;
76125;SDS011;65174;48.138;21.002;2023-05-28T05:55:47;1.58;;;1.48;;
76125;SDS011;65174;48.138;21.002;2023-05-28T05:58:50;2.38;;;1.20;;
76125;SDS011;65174;48.138;21.002;2023-05-28T06:01:52;0.60;;;0.60;;
76125;SDS011;65174;48.138;21.002;2023-05-28T06:04:54;2.72;;;1.60;;
76125;SDS011;65174;48.138;21.002;2023-05-28T06:08:17;2.17;;;1.10;;
76125;SDS011;65174;48.138;21.002;2023-05-28T06:11:48;2.42;;;0.88;;
76125;SDS011;65174;48.138;21.002;2023-05-28T06:14:50;1.40;;;0.77;;
76125;SDS011;65174;48.138;21.002;2023-05-28T06:17:52;1.48;;;0.75;;
76125;SDS011;65174;48.138;21.002;2023-05-28T06:20:56;2.22;;;1.00;;
76125;SDS011;65174;48.138;21.002;2023-05-28T06:23:58;1.23;;;0.90;;
76125;SDS011;65174;48.138;21.002;2023-05-28T06:27:00;1.10;;;1.00;;
76125;SDS011;65174;48.138;21.002;2023-05-28T06:30:03;1.38;;;0.88;;
76125;SDS011;65174;48.138;21.002;2023-05-28T06:33:06;0.82;;;0.77;;
76125;SDS011;65174;48.138;21.002;2023-05-28T06:36:09;5.65;;;0.98;;
76125;SDS011;65174;48.138;21.002;2023-05-28T06:39:12;2.40;;;0.97;;
76125;SDS011;65174;48.138;21.002;2023-05-28T06:42:16;1.60;;;1.00;;
76125;SDS011;65174;48.138;21.002;2023-05-28T06:45:35;1.70;;;1.15;;
76125;SDS011;65174;48.138;21.002;2023-05-28T06:48:37;1.10;;;0.90;;
76125;SDS011;65174;48.138;21.002;2023-05-28T06:51:39;1.60;;;0.80;;
76125;SDS011;65174;48.138;21.002;2023-05-28T06:54:41;1.37;;;0.93;;
76125;SDS011;65174;48.138;21.002;2023-05-28T06:57:45;5.20;;;1.20;;
76125;SDS011;65174;48.138;21.002;2023-05-28T07:01:04;2.28;;;1.00;;
76125;SDS011;65174;48.138;21.002;2023-05-28T07:04:41;4.80;;;1.33;;
76125;SDS011;65174;48.138;21.002;2023-05-28T07:07:47;1.02;;;0.80;;
76125;SDS011;65174;48.138;21.002;2023-05-28T07:10:49;1.97;;;1.07;;
76125;SDS011;65174;48.138;21.002;2023-05-28T07:13:51;0.80;;;0.70;;
76125;SDS011;65174;48.138;21.002;2023-05-28T07:16:54;1.42;;;1.05;;
76125;SDS011;65174;48.138;21.002;2023-05-28T07:19:56;1.40;;;0.90;;
76125;SDS011;65174;48.138;21.002;2023-05-28T07:23:12;1.27;;;0.95;;
76125;SDS011;65174;48.138;21.002;2023-05-28T07:26:14;0.90;;;0.67;;
76125;SDS011;65174;48.138;21.002;2023-05-28T07:29:17;1.00;;;0.90;;
76125;SDS011;65174;48.138;21.002;2023-05-28T07:32:20;1.10;;;0.98;;
76125;SDS011;65174;48.138;21.002;2023-05-28T07:35:25;1.63;;;0.80;;
76125;SDS011;65174;48.138;21.002;2023-05-28T07:38:27;1.85;;;1.17;;
76125;SDS011;65174;48.138;21.002;2023-05-28T07:41:32;1.13;;;0.90;;
76125;SDS011;65174;48.138;21.002;2023-05-28T07:44:48;1.63;;;1.38;;
76125;SDS011;65174;48.138;21.002;2023-05-28T07:47:51;1.92;;;1.05;;
76125;SDS011;65174;48.138;21.002;2023-05-28T07:51:12;2.00;;;1.77;;
76125;SDS011;65174;48.138;21.002;2023-05-28T07:54:19;2.28;;;1.13;;
76125;SDS011;65174;48.138;21.002;2023-05-28T07:57:22;2.90;;;1.00;;
76125;SDS011;65174;48.138;21.002;2023-05-28T08:00:27;1.17;;;0.90;;
76125;SDS011;65174;48.138;21.002;2023-05-28T08:03:36;1.95;;;1.08;;
76125;SDS011;65174;48.138;21.002;2023-05-28T08:06:38;1.27;;;0.93;;
76125;SDS011;65174;48.138;21.002;2023-05-28T08:09:45;1.05;;;0.88;;
76125;SDS011;65174;48.138;21.002;2023-05-28T08:12:50;2.00;;;1.20;;
76125;SDS011;65174;48.138;21.002;2023-05-28T08:15:53;1.80;;;0.98;;
76125;SDS011;65174;48.138;21.002;2023-05-28T08:18:58;1.98;;;0.93;;
76125;SDS011;65174;48.138;21.002;2023-05-28T08:22:01;1.55;;;1.02;;
76125;SDS011;65174;48.138;21.002;2023-05-28T08:25:03;0.85;;;0.82;;
76125;SDS011;65174;48.138;21.002;2023-05-28T08:28:06;2.87;;;1.40;;
76125;SDS011;65174;48.138;21.002;2023-05-28T08:31:11;1.25;;;1.15;;
76125;SDS011;65174;48.138;21.002;2023-05-28T08:34:36;2.72;;;0.82;;
76125;SDS011;65174;48.138;21.002;2023-05-28T08:37:38;1.17;;;0.75;;
76125;SDS011;65174;48.138;21.002;2023-05-28T08:40:54;1.42;;;1.15;;
76125;SDS011;65174;48.138;21.002;2023-05-28T08:43:57;2.00;;;1.10;;
76125;SDS011;65174;48.138;21.002;2023-05-28T08:47:01;1.35;;;1.20;;
76125;SDS011;65174;48.138;21.002;2023-05-28T08:50:19;1.35;;;1.10;;
76125;SDS011;65174;48.138;21.002;2023-05-28T08:53:48;1.25;;;1.05;;
76125;SDS011;65174;48.138;21.002;2023-05-28T08:56:59;2.17;;;1.20;;
76125;SDS011;65174;48.138;21.002;2023-05-28T09:00:03;2.93;;;1.33;;
76125;SDS011;65174;48.138;21.002;2023-05-28T09:03:28;2.80;;;1.10;;
76125;SDS011;65174;48.138;21.002;2023-05-28T09:06:38;1.63;;;1.08;;
76125;SDS011;65174;48.138;21.002;2023-05-28T09:09:44;2.38;;;1.33;;
76125;SDS011;65174;48.138;21.002;2023-05-28T09:12:58;2.28;;;1.27;;
76125;SDS011;65174;48.138;21.002;2023-05-28T09:16:01;2.50;;;1.13;;
76125;SDS011;65174;48.138;21.002;2023-05-28T09:19:04;2.17;;;1.20;;
76125;SDS011;65174;48.138;21.002;2023-05-28T09:22:07;1.40;;;1.25;;
76125;SDS011;65174;48.138;21.002;2023-05-28T09:25:22;3.88;;;1.50;;
76125;SDS011;65174;48.138;21.002;2023-05-28T09:28:31;2.15;;;1.20;;
76125;SDS011;65174;48.138;21.002;2023-05-28T09:31:33;3.87;;;1.30;;
76125;SDS011;65174;48.138;21.002;2023-05-28T09:34:35;1.65;;;1.00;;
76125;SDS011;65174;48.138;21.002;2023-05-28T09:37:45;1.90;;;1.40;;
76125;SDS011;65174;48.138;21.002;2023-05-28T09:40:47;3.25;;;1.35;;
76125;SDS011;65174;48.138;21.002;2023-05-28T09:43:56;2.03;;;1.55;;
76125;SDS011;65174;48.138;21.002;2023-05-28T09:47:00;2.30;;;1.40;;
76125;SDS011;65174;48.138;21.002;2023-05-28T09:50:04;1.48;;;1.00;;
76125;SDS011;65174;48.138;21.002;2023-05-28T09:53:06;2.60;;;1.40;;
76125;SDS011;65174;48.138;21.002;2023-05-28T09:56:10;2.58;;;1.58;;
76125;SDS011;65174;48.138;21.002;2023-05-28T09:59:14;3.75;;;1.40;;
76125;SDS011;65174;48.138;21.002;2023-05-28T10:05:21;2.15;;;1.30;;
76125;SDS011;65174;48.138;21.002;2023-05-28T10:08:27;2.63;;;1.42;;
76125;SDS011;65174;48.138;21.002;2023-05-28T10:11:30;3.75;;;1.40;;
76125;SDS011;65174;48.138;21.002;2023-05-28T10:14:44;2.65;;;1.30;;
76125;SDS011;65174;48.138;21.002;2023-05-28T10:17:48;1.83;;;1.27;;
76125;SDS011;65174;48.138;21.002;2023-05-28T10:20:51;1.38;;;1.10;;
76125;SDS011;65174;48.138;21.002;2023-05-28T10:23:53;3.08;;;1.42;;
76125;SDS011;65174;48.138;21.002;2023-05-28T10:26:56;3.05;;;1.60;;
76125;SDS011;65174;48.138;21.002;2023-05-28T10:30:01;4.50;;;1.40;;
76125;SDS011;65174;48.138;21.002;2023-05-28T10:33:09;1.60;;;1.27;;
76125;SDS011;65174;48.138;21.002;2023-05-28T10:36:13;2.53;;;1.80;;
76125;SDS011;65174;48.138;21.002;2023-05-28T10:39:16;3.78;;;1.35;;
76125;SDS011;65174;48.138;21.002;2023-05-28T10:42:19;9.30;;;1.60;;
76125;SDS011;65174;48.138;21.002;2023-05-28T10:45:33;2.00;;;1.45;;
76125;SDS011;65174;48.138;21.002;2023-05-28T10:52:08;2.72;;;1.50;;
76125;SDS011;65174;48.138;21.002;2023-05-28T10:55:22;3.08;;;1.60;;
76125;SDS011;65174;48.138;21.002;2023-05-28T10:58:25;2.92;;;1.90;;
76125;SDS011;65174;48.138;21.002;2023-05-28T11:01:27;2.28;;;1.73;;
76125;SDS011;65174;48.138;21.002;2023-05-28T11:04:33;2.57;;;2.10;;
76125;SDS011;65174;48.138;21.002;2023-05-28T11:07:36;2.90;;;1.70;;
76125;SDS011;65174;48.138;21.002;2023-05-28T11:10:39;2.38;;;1.90;;
76125;SDS011;65174;48.138;21.002;2023-05-28T11:13:42;3.90;;;1.88;;
76125;SDS011;65174;48.138;21.002;2023-05-28T11:16:48;5.00;;;1.65;;
76125;SDS011;65174;48.138;21.002;2023-05-28T11:19:50;2.83;;;1.60;;
76125;SDS011;65174;48.138;21.002;2023-05-28T11:22:53;3.45;;;1.65;;
76125;SDS011;65174;48.138;21.002;2023-05-28T11:25:57;2.45;;;1.33;;
76125;SDS011;65174;48.138;21.002;2023-05-28T11:29:18;6.95;;;1.83;;
76125;SDS011;65174;48.138;21.002;2023-05-28T11:32:20;2.05;;;1.67;;
76125;SDS011;65174;48.138;21.002;2023-05-28T11:35:23;3.07;;;1.80;;
76125;SDS011;65174;48.138;21.002;2023-05-28T11:38:25;3.90;;;1.98;;
76125;SDS011;65174;48.138;21.002;2023-05-28T11:41:27;2.45;;;1.58;;
76125;SDS011;65174;48.138;21.002;2023-05-28T11:44:29;3.33;;;2.35;;
76125;SDS011;65174;48.138;21.002;2023-05-28T11:47:32;4.90;;;2.35;;
76125;SDS011;65174;48.138;21.002;2023-05-28T11:50:34;2.17;;;1.70;;
76125;SDS011;65174;48.138;21.002;2023-05-28T11:53:37;4.10;;;1.52;;
76125;SDS011;65174;48.138;21.002;2023-05-28T11:56:40;3.00;;;1.88;;
76125;SDS011;65174;48.138;21.002;2023-05-28T11:59:42;2.75;;;1.88;;
76125;SDS011;65174;48.138;21.002;2023-05-28T12:03:20;1.98;;;1.50;;
76125;SDS011;65174;48.138;21.002;2023-05-28T12:06:22;2.77;;;1.77;;
76125;SDS011;65174;48.138;21.002;2023-05-28T12:09:40;2.70;;;1.98;;
76125;SDS011;65174;48.138;21.002;2023-05-28T12:12:42;2.08;;;1.52;;
76125;SDS011;65174;48.138;21.002;2023-05-28T12:15:45;3.22;;;1.70;;
76125;SDS011;65174;48.138;21.002;2023-05-28T12:18:47;4.35;;;1.52;;
76125;SDS011;65174;48.138;21.002;2023-05-28T12:21:50;2.33;;;1.40;;
76125;SDS011;65174;48.138;21.002;2023-05-28T12:24:52;3.90;;;2.15;;
76125;SDS011;65174;48.138;21.002;2023-05-28T12:27:56;5.55;;;1.85;;
76125;SDS011;65174;48.138;21.002;2023-05-28T12:30:58;3.65;;;1.92;;
76125;SDS011;65174;48.138;21.002;2023-05-28T12:34:01;2.67;;;1.95;;
76125;SDS011;65174;48.138;21.002;2023-05-28T12:37:03;3.73;;;1.60;;
76125;SDS011;65174;48.138;21.002;2023-05-28T12:40:06;3.05;;;1.90;;
76125;SDS011;65174;48.138;21.002;2023-05-28T12:43:08;1.95;;;1.50;;
76125;SDS011;65174;48.138;21.002;2023-05-28T12:46:10;4.88;;;1.77;;
76125;SDS011;65174;48.138;21.002;2023-05-28T12:49:15;5.18;;;1.60;;
76125;SDS011;65174;48.138;21.002;2023-05-28T12:52:17;2.67;;;2.10;;
76125;SDS011;65174;48.138;21.002;2023-05-28T12:55:19;3.75;;;2.08;;
76125;SDS011;65174;48.138;21.002;2023-05-28T12:58:22;2.25;;;1.58;;
76125;SDS011;65174;48.138;21.002;2023-05-28T13:01:25;6.18;;;1.70;;
76125;SDS011;65174;48.138;21.002;2023-05-28T13:04:28;3.58;;;2.20;;
76125;SDS011;65174;48.138;21.002;2023-05-28T13:07:30;5.93;;;1.90;;
76125;SDS011;65174;48.138;21.002;2023-05-28T13:10:32;2.80;;;1.88;;
76125;SDS011;65174;48.138;21.002;2023-05-28T13:13:34;2.15;;;1.75;;
76125;SDS011;65174;48.138;21.002;2023-05-28T13:16:36;1.95;;;1.60;;
76125;SDS011;65174;48.138;21.002;2023-05-28T13:19:38;2.08;;;1.65;;
76125;SDS011;65174;48.138;21.002;2023-05-28T13:22:41;1.97;;;1.57;;
76125;SDS011;65174;48.138;21.002;2023-05-28T13:25:44;2.97;;;1.80;;
76125;SDS011;65174;48.138;21.002;2023-05-28T13:28:46;2.22;;;1.80;;
76125;SDS011;65174;48.138;21.002;2023-05-28T13:31:48;5.72;;;1.50;;
76125;SDS011;65174;48.138;21.002;2023-05-28T13:34:50;2.90;;;1.73;;
76125;SDS011;65174;48.138;21.002;2023-05-28T13:37:52;2.07;;;1.50;;
76125;SDS011;65174;48.138;21.002;2023-05-28T13:40:54;2.30;;;1.50;;
76125;SDS011;65174;48.138;21.002;2023-05-28T13:43:57;3.40;;;1.88;;
76125;SDS011;65174;48.138;21.002;2023-05-28T13:46:59;2.33;;;1.50;;
76125;SDS011;65174;48.138;21.002;2023-05-28T13:50:01;2.83;;;1.48;;
76125;SDS011;65174;48.138;21.002;2023-05-28T13:53:04;2.83;;;1.90;;
76125;SDS011;65174;48.138;21.002;2023-05-28T13:56:06;2.40;;;1.98;;
76125;SDS011;65174;48.138;21.002;2023-05-28T13:59:09;3.05;;;2.15;;
76125;SDS011;65174;48.138;21.002;2023-05-28T14:02:11;3.03;;;2.03;;
76125;SDS011;65174;48.138;21.002;2023-05-28T14:05:13;3.15;;;1.73;;
76125;SDS011;65174;48.138;21.002;2023-05-28T14:08:15;4.37;;;2.23;;
76125;SDS011;65174;48.138;21.002;2023-05-28T14:11:17;3.30;;;1.92;;
76125;SDS011;65174;48.138;21.002;2023-05-28T14:14:19;2.08;;;1.65;;
76125;SDS011;65174;48.138;21.002;2023-05-28T14:17:22;2.78;;;1.48;;
76125;SDS011;65174;48.138;21.002;2023-05-28T14:20:23;2.65;;;1.50;;
76125;SDS011;65174;48.138;21.002;2023-05-28T14:23:26;2.77;;;1.70;;
76125;SDS011;65174;48.138;21.002;2023-05-28T14:26:28;2.17;;;1.45;;
76125;SDS011;65174;48.138;21.002;2023-05-28T14:29:29;2.10;;;1.50;;
76125;SDS011;65174;48.138;21.002;2023-05-28T14:32:31;3.10;;;2.05;;
76125;SDS011;65174;48.138;21.002;2023-05-28T14:35:34;1.60;;;1.23;;
76125;SDS011;65174;48.138;21.002;2023-05-28T14:38:36;3.00;;;2.10;;
76125;SDS011;65174;48.138;21.002;2023-05-28T14:41:38;3.35;;;1.70;;
76125;SDS011;65174;48.138;21.002;2023-05-28T14:44:40;3.58;;;1.55;;
76125;SDS011;65174;48.138;21.002;2023-05-28T14:47:42;2.53;;;1.77;;
76125;SDS011;65174;48.138;21.002;2023-05-28T14:50:44;3.08;;;1.70;;
76125;SDS011;65174;48.138;21.002;2023-05-28T14:53:46;1.93;;;1.67;;
76125;SDS011;65174;48.138;21.002;2023-05-28T14:56:48;1.98;;;1.55;;
76125;SDS011;65174;48.138;21.002;2023-05-28T14:59:52;1.77;;;1.30;;
76125;SDS011;65174;48.138;21.002;2023-05-28T15:02:55;2.20;;;2.00;;
76125;SDS011;65174;48.138;21.002;2023-05-28T15:05:57;2.67;;;1.73;;
76125;SDS011;65174;48.138;21.002;2023-05-28T15:08:59;3.83;;;1.70;;
76125;SDS011;65174;48.138;21.002;2023-05-28T15:12:02;2.90;;;2.20;;
76125;SDS011;65174;48.138;21.002;2023-05-28T15:15:04;3.10;;;1.65;;
76125;SDS011;65174;48.138;21.002;2023-05-28T15:18:07;2.83;;;1.83;;
76125;SDS011;65174;48.138;21.002;2023-05-28T15:21:09;2.70;;;1.67;;
76125;SDS011;65174;48.138;21.002;2023-05-28T15:24:11;3.23;;;1.83;;
76125;SDS011;65174;48.138;21.002;2023-05-28T15:27:13;2.33;;;2.05;;
76125;SDS011;65174;48.138;21.002;2023-05-28T15:30:16;2.28;;;1.60;;
76125;SDS011;65174;48.138;21.002;2023-05-28T15:33:18;2.53;;;1.55;;
76125;SDS011;65174;48.138;21.002;2023-05-28T15:36:20;2.80;;;2.00;;
76125;SDS011;65174;48.138;21.002;2023-05-28T15:39:22;4.57;;;1.83;;
76125;SDS011;65174;48.138;21.002;2023-05-28T15:42:24;3.03;;;2.00;;
76125;SDS011;65174;48.138;21.002;2023-05-28T15:45:27;4.30;;;1.95;;
76125;SDS011;65174;48.138;21.002;2023-05-28T15:48:29;2.65;;;1.90;;
76125;SDS011;65174;48.138;21.002;2023-05-28T15:51:31;2.72;;;2.13;;
76125;SDS011;65174;48.138;21.002;2023-05-28T15:54:33;3.37;;;2.13;;
76125;SDS011;65174;48.138;21.002;2023-05-28T15:57:35;2.40;;;1.58;;
76125;SDS011;65174;48.138;21.002;2023-05-28T16:00:37;5.13;;;2.25;;
76125;SDS011;65174;48.138;21.002;2023-05-28T16:03:41;4.55;;;2.10;;
76125;SDS011;65174;48.138;21.002;2023-05-28T16:06:43;5.47;;;2.28;;
76125;SDS011;65174;48.138;21.002;2023-05-28T16:09:45;2.67;;;2.00;;
76125;SDS011;65174;48.138;21.002;2023-05-28T16:12:48;2.50;;;2.28;;
76125;SDS011;65174;48.138;21.002;2023-05-28T16:15:54;5.32;;;2.22;;
76125;SDS011;65174;48.138;21.002;2023-05-28T16:18:58;2.83;;;2.03;;
76125;SDS011;65174;48.138;21.002;2023-05-28T16:22:01;2.00;;;1.65;;
76125;SDS011;65174;48.138;21.002;2023-05-28T16:25:03;3.80;;;2.00;;
76125;SDS011;65174;48.138;21.002;2023-05-28T16:28:05;5.22;;;2.10;;
76125;SDS011;65174;48.138;21.002;2023-05-28T16:31:08;4.00;;;2.30;;
76125;SDS011;65174;48.138;21.002;2023-05-28T16:34:13;3.13;;;2.28;;
76125;SDS011;65174;48.138;21.002;2023-05-28T16:37:16;4.22;;;2.22;;
76125;SDS011;65174;48.138;21.002;2023-05-28T16:40:18;4.53;;;2.50;;
76125;SDS011;65174;48.138;21.002;2023-05-28T16:43:21;2.60;;;1.90;;
76125;SDS011;65174;48.138;21.002;2023-05-28T16:46:23;2.47;;;1.92;;
76125;SDS011;65174;48.138;21.002;2023-05-28T16:49:26;3.28;;;1.90;;
76125;SDS011;65174;48.138;21.002;2023-05-28T16:52:29;5.05;;;2.92;;
76125;SDS011;65174;48.138;21.002;2023-05-28T16:55:31;3.87;;;2.50;;
76125;SDS011;65174;48.138;21.002;2023-05-28T16:58:33;4.70;;;3.30;;
76125;SDS011;65174;48.138;21.002;2023-05-28T17:01:35;5.60;;;3.28;;
76125;SDS011;65174;48.138;21.002;2023-05-28T17:04:38;4.35;;;2.85;;
76125;SDS011;65174;48.138;21.002;2023-05-28T17:07:40;4.13;;;3.10;;
76125;SDS011;65174;48.138;21.002;2023-05-28T17:10:42;4.67;;;2.17;;
76125;SDS011;65174;48.138;21.002;2023-05-28T17:13:44;4.13;;;2.33;;
76125;SDS011;65174;48.138;21.002;2023-05-28T17:16:47;3.92;;;2.55;;
76125;SDS011;65174;48.138;21.002;2023-05-28T17:19:49;3.00;;;2.40;;
76125;SDS011;65174;48.138;21.002;2023-05-28T17:22:51;3.08;;;2.10;;
76125;SDS011;65174;48.138;21.002;2023-05-28T17:25:56;4.50;;;2.50;;
76125;SDS011;65174;48.138;21.002;2023-05-28T17:28:58;3.70;;;2.30;;
76125;SDS011;65174;48.138;21.002;2023-05-28T17:32:00;3.08;;;2.58;;
76125;SDS011;65174;48.138;21.002;2023-05-28T17:35:02;4.28;;;2.35;;
76125;SDS011;65174;48.138;21.002;2023-05-28T17:38:05;3.55;;;2.10;;
76125;SDS011;65174;48.138;21.002;2023-05-28T17:41:08;4.67;;;2.03;;
76125;SDS011;65174;48.138;21.002;2023-05-28T17:44:10;4.25;;;2.28;;
76125;SDS011;65174;48.138;21.002;2023-05-28T17:47:14;5.10;;;2.25;;
76125;SDS011;65174;48.138;21.002;2023-05-28T17:50:16;4.35;;;2.30;;
76125;SDS011;65174;48.138;21.002;2023-05-28T17:53:19;3.35;;;2.40;;
76125;SDS011;65174;48.138;21.002;2023-05-28T17:56:28;2.93;;;2.57;;
76125;SDS011;65174;48.138;21.002;2023-05-28T17:59:34;3.15;;;2.55;;
76125;SDS011;65174;48.138;21.002;2023-05-28T18:02:36;4.60;;;3.25;;
76125;SDS011;65174;48.138;21.002;2023-05-28T18:05:38;3.95;;;2.85;;
76125;SDS011;65174;48.138;21.002;2023-05-28T18:08:40;5.50;;;2.65;;
76125;SDS011;65174;48.138;21.002;2023-05-28T18:11:43;4.23;;;3.03;;
76125;SDS011;65174;48.138;21.002;2023-05-28T18:14:45;4.35;;;2.97;;
76125;SDS011;65174;48.138;21.002;2023-05-28T18:17:47;3.97;;;2.50;;